createdAt,value
2023-07-20T00:00:14.570Z,1008.84
2023-07-20T00:00:24.058Z,1008.73
2023-07-20T00:00:33.607Z,1008.76
2023-07-20T00:00:43.065Z,1008.80
2023-07-20T00:00:52.519Z,1008.83
2023-07-20T00:01:01.959Z,1008.77
2023-07-20T00:01:20.918Z,1008.77
2023-07-20T00:01:30.348Z,1008.76
2023-07-20T00:01:39.779Z,1008.86
2023-07-20T00:01:49.253Z,1008.78
2023-07-20T00:01:58.752Z,1008.77
2023-07-20T00:02:08.230Z,1008.84
2023-07-20T00:02:27.095Z,1008.78
2023-07-20T00:02:36.533Z,1008.83
2023-07-20T00:02:45.936Z,1008.84
2023-07-20T00:02:55.370Z,1008.84
2023-07-20T00:03:04.808Z,1008.80
2023-07-20T00:03:14.195Z,1008.84
2023-07-20T00:03:33.327Z,1008.87
2023-07-20T00:03:42.807Z,1008.91
2023-07-20T00:03:52.253Z,1008.84
2023-07-20T00:04:01.685Z,1008.81
2023-07-20T00:04:11.161Z,1008.81
2023-07-20T00:04:20.561Z,1008.82
2023-07-20T00:04:39.357Z,1008.81
2023-07-20T00:04:48.745Z,1008.81
2023-07-20T00:04:58.171Z,1008.88
2023-07-20T00:05:07.597Z,1008.86
2023-07-20T00:05:17.028Z,1008.84
2023-07-20T00:05:26.527Z,1008.86
2023-07-20T00:05:45.607Z,1008.85
2023-07-20T00:05:54.892Z,1008.90
2023-07-20T00:06:04.391Z,1008.84
2023-07-20T00:06:13.835Z,1008.87
2023-07-20T00:06:23.510Z,1008.87
2023-07-20T00:06:32.717Z,1008.79
2023-07-20T00:06:51.624Z,1008.86
2023-07-20T00:07:01.231Z,1008.90
2023-07-20T00:07:10.709Z,1008.95
2023-07-20T00:07:20.127Z,1008.83
2023-07-20T00:07:29.625Z,1008.86
2023-07-20T00:07:39.097Z,1008.88
2023-07-20T00:07:57.999Z,1008.83
2023-07-20T00:08:07.434Z,1008.85
2023-07-20T00:08:16.887Z,1008.82
2023-07-20T00:08:26.344Z,1008.83
2023-07-20T00:08:35.776Z,1008.84
2023-07-20T00:08:45.277Z,1008.90
2023-07-20T00:09:04.108Z,1008.73
2023-07-20T00:09:13.561Z,1008.87
2023-07-20T00:09:22.971Z,1008.85
2023-07-20T00:09:32.393Z,1008.85
2023-07-20T00:09:41.833Z,1008.93
2023-07-20T00:09:51.283Z,1008.86
2023-07-20T00:10:10.751Z,1008.86
2023-07-20T00:10:20.187Z,1008.91
2023-07-20T00:10:29.699Z,1008.85
2023-07-20T00:10:39.108Z,1008.84
2023-07-20T00:10:48.633Z,1008.73
2023-07-20T00:10:58.072Z,1008.90
2023-07-20T00:11:16.927Z,1008.79
2023-07-20T00:11:26.377Z,1008.77
2023-07-20T00:11:35.810Z,1008.83
2023-07-20T00:11:45.282Z,1008.73
2023-07-20T00:11:54.713Z,1008.75
2023-07-20T00:12:04.135Z,1008.74
2023-07-20T00:12:22.988Z,1008.73
2023-07-20T00:12:32.412Z,1008.73
2023-07-20T00:12:41.957Z,1008.81
2023-07-20T00:12:51.355Z,1008.75
2023-07-20T00:13:00.779Z,1008.79
2023-07-20T00:13:10.297Z,1008.75
2023-07-20T00:13:29.184Z,1008.74
2023-07-20T00:13:39.827Z,1008.79
2023-07-20T00:13:49.390Z,1008.74
2023-07-20T00:13:58.814Z,1008.72
2023-07-20T00:14:08.293Z,1008.77
2023-07-20T00:14:17.715Z,1008.72
2023-07-20T00:14:36.663Z,1008.73
2023-07-20T00:14:46.097Z,1008.68
2023-07-20T00:14:55.578Z,1008.69
2023-07-20T00:15:05.105Z,1008.70
2023-07-20T00:15:14.585Z,1008.74
2023-07-20T00:15:24.009Z,1008.69
2023-07-20T00:15:42.968Z,1008.73
2023-07-20T00:15:52.395Z,1008.76
2023-07-20T00:16:01.852Z,1008.79
2023-07-20T00:16:11.358Z,1008.71
2023-07-20T00:16:21.268Z,1008.73
2023-07-20T00:16:30.260Z,1008.72
2023-07-20T00:16:49.153Z,1008.72
2023-07-20T00:16:58.604Z,1008.78
2023-07-20T00:17:08.097Z,1008.66
2023-07-20T00:17:17.461Z,1008.71
2023-07-20T00:17:26.923Z,1008.73
2023-07-20T00:17:36.361Z,1008.69
2023-07-20T00:17:55.357Z,1008.72
2023-07-20T00:19:02.760Z,1008.65
2023-07-20T00:20:10.067Z,1008.77
2023-07-20T00:21:22.472Z,1008.79
2023-07-20T00:22:29.966Z,1008.76
2023-07-20T00:23:44.200Z,1008.76
2023-07-20T00:25:44.202Z,1008.80
2023-07-20T00:27:59.281Z,1008.80
2023-07-20T00:28:08.733Z,1008.79
2023-07-20T00:28:18.199Z,1008.83
2023-07-20T00:28:27.633Z,1008.80
2023-07-20T00:28:37.070Z,1008.79
2023-07-20T00:28:46.574Z,1008.78
2023-07-20T00:29:05.437Z,1008.80
2023-07-20T00:29:14.891Z,1008.74
2023-07-20T00:29:24.304Z,1008.84
2023-07-20T00:29:33.713Z,1008.82
2023-07-20T00:29:43.170Z,1008.81
2023-07-20T00:29:52.654Z,1008.79
2023-07-20T00:30:11.545Z,1008.82
2023-07-20T00:30:21.081Z,1008.88
2023-07-20T00:30:30.459Z,1008.90
2023-07-20T00:30:39.883Z,1008.84
2023-07-20T00:30:49.377Z,1008.92
2023-07-20T00:30:58.729Z,1008.87
2023-07-20T00:31:17.697Z,1008.87
2023-07-20T00:31:27.082Z,1008.87
2023-07-20T00:31:36.544Z,1008.81
2023-07-20T00:31:46.888Z,1008.85
2023-07-20T00:31:55.439Z,1008.82
2023-07-20T00:32:04.918Z,1008.82
2023-07-20T00:32:23.850Z,1008.84
2023-07-20T00:32:33.283Z,1008.84
2023-07-20T00:32:42.680Z,1008.90
2023-07-20T00:32:52.154Z,1008.89
2023-07-20T00:33:01.604Z,1008.88
2023-07-20T00:33:11.021Z,1008.86
2023-07-20T00:33:29.865Z,1008.78
2023-07-20T00:33:39.311Z,1008.85
2023-07-20T00:33:48.743Z,1008.81
2023-07-20T00:33:58.163Z,1008.77
2023-07-20T00:34:07.610Z,1008.86
2023-07-20T00:34:17.063Z,1008.92
2023-07-20T00:34:35.977Z,1008.88
2023-07-20T00:34:45.487Z,1008.85
2023-07-20T00:34:54.916Z,1008.88
2023-07-20T00:35:04.336Z,1008.86
2023-07-20T00:35:13.806Z,1008.91
2023-07-20T00:35:23.240Z,1008.90
2023-07-20T00:35:42.092Z,1008.87
2023-07-20T00:35:51.552Z,1008.86
2023-07-20T00:36:00.991Z,1008.86
2023-07-20T00:36:10.426Z,1008.83
2023-07-20T00:36:20.110Z,1008.81
2023-07-20T00:36:29.344Z,1008.90
2023-07-20T00:36:48.242Z,1008.81
2023-07-20T00:36:57.669Z,1008.86
2023-07-20T00:37:07.082Z,1008.88
2023-07-20T00:37:16.582Z,1008.86
2023-07-20T00:37:25.996Z,1008.95
2023-07-20T00:37:35.446Z,1008.85
2023-07-20T00:37:54.500Z,1008.88
2023-07-20T00:38:03.893Z,1008.91
2023-07-20T00:38:13.281Z,1008.86
2023-07-20T00:38:22.704Z,1008.83
2023-07-20T00:38:32.223Z,1008.80
2023-07-20T00:38:41.650Z,1008.90
2023-07-20T00:39:00.548Z,1008.86
2023-07-20T00:39:09.965Z,1008.83
2023-07-20T00:39:19.936Z,1008.92
2023-07-20T00:39:29.513Z,1008.91
2023-07-20T00:39:38.909Z,1008.89
2023-07-20T00:39:48.350Z,1008.92
2023-07-20T00:40:07.163Z,1008.89
2023-07-20T00:40:16.700Z,1008.85
2023-07-20T00:40:26.111Z,1008.93
2023-07-20T00:40:35.525Z,1008.89
2023-07-20T00:40:45.122Z,1008.93
2023-07-20T00:40:54.748Z,1008.88
2023-07-20T00:41:13.762Z,1008.86
2023-07-20T00:41:23.193Z,1008.87
2023-07-20T00:41:32.630Z,1008.88
2023-07-20T00:41:42.077Z,1008.85
2023-07-20T00:41:51.485Z,1008.86
2023-07-20T00:42:00.902Z,1008.93
2023-07-20T00:42:20.026Z,1008.86
2023-07-20T00:42:29.514Z,1008.90
2023-07-20T00:42:38.941Z,1008.85
2023-07-20T00:42:48.449Z,1008.91
2023-07-20T00:42:57.861Z,1008.86
2023-07-20T00:43:07.283Z,1008.85
2023-07-20T00:43:26.124Z,1008.90
2023-07-20T00:43:35.552Z,1008.83
2023-07-20T00:43:45.001Z,1008.85
2023-07-20T00:43:54.432Z,1008.84
2023-07-20T00:44:03.850Z,1008.83
2023-07-20T00:44:13.260Z,1008.81
2023-07-20T00:44:32.117Z,1008.81
2023-07-20T00:44:41.514Z,1008.83
2023-07-20T00:44:50.939Z,1008.85
2023-07-20T00:45:00.403Z,1008.87
2023-07-20T00:45:09.791Z,1008.87
2023-07-20T00:45:19.283Z,1008.87
2023-07-20T00:45:38.191Z,1008.84
2023-07-20T00:45:47.619Z,1008.85
2023-07-20T00:45:57.090Z,1008.88
2023-07-20T00:46:06.586Z,1008.82
2023-07-20T00:46:16.097Z,1008.84
2023-07-20T00:46:26.088Z,1008.80
2023-07-20T00:46:44.496Z,1008.89
2023-07-20T00:46:53.987Z,1008.89
2023-07-20T00:47:03.332Z,1008.82
2023-07-20T00:47:12.744Z,1008.86
2023-07-20T00:47:22.170Z,1008.86
2023-07-20T00:47:31.649Z,1008.81
2023-07-20T00:47:50.489Z,1008.86
2023-07-20T00:47:59.865Z,1008.85
2023-07-20T00:48:09.351Z,1008.86
2023-07-20T00:48:18.663Z,1008.82
2023-07-20T00:48:28.093Z,1008.87
2023-07-20T00:48:37.523Z,1008.89
2023-07-20T00:48:56.364Z,1008.87
2023-07-20T00:49:05.790Z,1008.88
2023-07-20T00:49:15.210Z,1008.86
2023-07-20T00:49:24.636Z,1008.81
2023-07-20T00:49:34.056Z,1008.75
2023-07-20T00:49:43.453Z,1008.77
2023-07-20T00:50:02.286Z,1008.79
2023-07-20T00:50:11.726Z,1008.86
2023-07-20T00:50:21.139Z,1008.78
2023-07-20T00:50:30.560Z,1008.77
2023-07-20T00:50:39.978Z,1008.78
2023-07-20T00:50:49.417Z,1008.80
2023-07-20T00:51:08.271Z,1008.78
2023-07-20T00:51:17.711Z,1008.85
2023-07-20T00:51:27.152Z,1008.85
2023-07-20T00:51:36.611Z,1008.78
2023-07-20T00:51:46.018Z,1008.78
2023-07-20T00:51:55.454Z,1008.80
2023-07-20T00:52:14.355Z,1008.83
2023-07-20T00:52:23.777Z,1008.81
2023-07-20T00:52:33.246Z,1008.82
2023-07-20T00:52:42.654Z,1008.86
2023-07-20T00:52:52.066Z,1008.81
2023-07-20T00:53:02.083Z,1008.76
2023-07-20T00:53:21.098Z,1008.78
2023-07-20T00:53:30.637Z,1008.78
2023-07-20T00:53:40.064Z,1008.81
2023-07-20T00:53:49.493Z,1008.79
2023-07-20T00:53:58.924Z,1008.82
2023-07-20T00:54:08.342Z,1008.77
2023-07-20T00:54:27.358Z,1008.75
2023-07-20T00:54:37.863Z,1008.78
2023-07-20T00:54:47.301Z,1008.84
2023-07-20T00:54:56.734Z,1008.79
2023-07-20T00:55:06.161Z,1008.80
2023-07-20T00:55:15.552Z,1008.78
2023-07-20T00:55:34.442Z,1008.75
2023-07-20T00:55:43.870Z,1008.78
2023-07-20T00:55:53.277Z,1008.77
2023-07-20T00:56:02.739Z,1008.76
2023-07-20T00:56:12.187Z,1008.81
2023-07-20T00:56:21.891Z,1008.84
2023-07-20T00:56:40.543Z,1008.80
2023-07-20T00:56:49.955Z,1008.80
2023-07-20T00:56:59.365Z,1008.74
2023-07-20T00:57:08.793Z,1008.78
2023-07-20T00:57:18.215Z,1008.75
2023-07-20T00:57:27.652Z,1008.78
2023-07-20T00:57:46.541Z,1008.80
2023-07-20T00:57:56.007Z,1008.80
2023-07-20T00:58:05.432Z,1008.75
2023-07-20T00:58:14.881Z,1008.84
2023-07-20T00:58:24.310Z,1008.81
2023-07-20T00:58:33.713Z,1008.75
2023-07-20T00:58:52.665Z,1008.79
2023-07-20T00:59:02.078Z,1008.83
2023-07-20T00:59:11.520Z,1008.78
2023-07-20T00:59:20.945Z,1008.75
2023-07-20T00:59:30.375Z,1008.76
2023-07-20T00:59:39.798Z,1008.80
2023-07-20T00:59:58.736Z,1008.78
2023-07-20T01:00:08.156Z,1008.75
2023-07-20T01:00:17.599Z,1008.77
2023-07-20T01:00:27.017Z,1008.72
2023-07-20T01:00:36.554Z,1008.75
2023-07-20T01:00:46.005Z,1008.81
2023-07-20T01:01:05.087Z,1008.72
2023-07-20T01:01:14.332Z,1008.79
2023-07-20T01:01:23.747Z,1008.74
2023-07-20T01:01:33.196Z,1008.75
2023-07-20T01:01:42.614Z,1008.73
2023-07-20T01:01:52.028Z,1008.77
2023-07-20T01:02:10.924Z,1008.79
2023-07-20T01:02:20.308Z,1008.78
2023-07-20T01:02:29.814Z,1008.75
2023-07-20T01:02:39.263Z,1008.76
2023-07-20T01:02:48.720Z,1008.74
2023-07-20T01:02:58.129Z,1008.75
2023-07-20T01:03:17.054Z,1008.75
2023-07-20T01:03:26.564Z,1008.76
2023-07-20T01:03:36.044Z,1008.72
2023-07-20T01:03:45.457Z,1008.74
2023-07-20T01:03:54.897Z,1008.80
2023-07-20T01:04:04.419Z,1008.72
2023-07-20T01:04:23.118Z,1008.85
2023-07-20T01:04:32.560Z,1008.82
2023-07-20T01:04:42.014Z,1008.77
2023-07-20T01:04:51.439Z,1008.78
2023-07-20T01:05:00.860Z,1008.82
2023-07-20T01:05:10.281Z,1008.77
2023-07-20T01:05:29.117Z,1008.79
2023-07-20T01:05:38.584Z,1008.89
2023-07-20T01:05:48.003Z,1008.85
2023-07-20T01:05:57.490Z,1008.88
2023-07-20T01:06:06.961Z,1008.83
2023-07-20T01:06:16.430Z,1008.89
2023-07-20T01:06:35.327Z,1008.86
2023-07-20T01:06:45.108Z,1008.77
2023-07-20T01:06:54.547Z,1008.85
2023-07-20T01:07:04.017Z,1008.86
2023-07-20T01:07:13.437Z,1008.80
2023-07-20T01:07:22.866Z,1008.78
2023-07-20T01:07:41.693Z,1008.85
2023-07-20T01:07:51.124Z,1008.86
2023-07-20T01:08:00.604Z,1008.82
2023-07-20T01:08:10.581Z,1008.83
2023-07-20T01:08:21.310Z,1008.83
2023-07-20T01:08:30.717Z,1008.82
2023-07-20T01:08:49.563Z,1008.80
2023-07-20T01:08:59.028Z,1008.79
2023-07-20T01:09:08.518Z,1008.82
2023-07-20T01:09:17.969Z,1008.85
2023-07-20T01:09:27.395Z,1008.77
2023-07-20T01:09:36.791Z,1008.79
2023-07-20T01:09:55.629Z,1008.76
2023-07-20T01:10:05.078Z,1008.91
2023-07-20T01:10:14.548Z,1008.83
2023-07-20T01:10:23.959Z,1008.86
2023-07-20T01:10:33.383Z,1008.87
2023-07-20T01:10:42.811Z,1008.87
2023-07-20T01:11:01.651Z,1008.85
2023-07-20T01:11:11.109Z,1008.85
2023-07-20T01:11:20.487Z,1008.81
2023-07-20T01:11:29.975Z,1008.90
2023-07-20T01:11:39.382Z,1008.87
2023-07-20T01:11:48.798Z,1008.87
2023-07-20T01:12:07.632Z,1008.93
2023-07-20T01:12:17.051Z,1008.89
2023-07-20T01:12:26.542Z,1008.95
2023-07-20T01:12:35.963Z,1008.87
2023-07-20T01:12:45.363Z,1008.95
2023-07-20T01:12:54.772Z,1008.94
2023-07-20T01:13:13.616Z,1008.90
2023-07-20T01:13:23.076Z,1008.90
2023-07-20T01:13:32.412Z,1008.92
2023-07-20T01:13:41.806Z,1008.87
2023-07-20T01:13:51.234Z,1008.88
2023-07-20T01:14:00.632Z,1008.89
2023-07-20T01:14:19.472Z,1008.91
2023-07-20T01:14:28.874Z,1008.89
2023-07-20T01:14:38.325Z,1008.88
2023-07-20T01:14:47.696Z,1008.85
2023-07-20T01:14:57.149Z,1008.86
2023-07-20T01:15:06.545Z,1008.89
2023-07-20T01:15:25.367Z,1008.96
2023-07-20T01:15:34.758Z,1008.93
2023-07-20T01:15:44.170Z,1008.91
2023-07-20T01:15:53.597Z,1008.85
2023-07-20T01:16:03.066Z,1008.91
2023-07-20T01:16:12.487Z,1008.86
2023-07-20T01:16:31.362Z,1008.93
2023-07-20T01:16:40.726Z,1008.91
2023-07-20T01:16:50.213Z,1008.94
2023-07-20T01:16:59.591Z,1008.97
2023-07-20T01:17:08.890Z,1008.91
2023-07-20T01:17:18.312Z,1008.99
2023-07-20T01:17:37.212Z,1008.98
2023-07-20T01:17:46.550Z,1008.93
2023-07-20T01:17:55.967Z,1008.90
2023-07-20T01:18:05.421Z,1008.95
2023-07-20T01:18:14.746Z,1008.90
2023-07-20T01:18:24.136Z,1008.99
2023-07-20T01:18:43.039Z,1008.88
2023-07-20T01:18:52.472Z,1008.95
2023-07-20T01:19:01.874Z,1008.86
2023-07-20T01:19:11.276Z,1008.91
2023-07-20T01:19:20.746Z,1008.93
2023-07-20T01:19:30.195Z,1008.89
2023-07-20T01:19:48.969Z,1008.93
2023-07-20T01:19:58.371Z,1008.94
2023-07-20T01:20:07.771Z,1008.95
2023-07-20T01:20:17.696Z,1008.98
2023-07-20T01:20:27.110Z,1008.96
2023-07-20T01:20:36.605Z,1008.90
2023-07-20T01:20:55.507Z,1008.96
2023-07-20T01:21:04.916Z,1008.92
2023-07-20T01:21:14.343Z,1008.96
2023-07-20T01:21:23.756Z,1008.92
2023-07-20T01:21:33.215Z,1008.91
2023-07-20T01:21:42.631Z,1008.94
2023-07-20T01:22:01.517Z,1008.93
2023-07-20T01:22:10.950Z,1008.97
2023-07-20T01:22:20.340Z,1008.96
2023-07-20T01:22:29.775Z,1008.95
2023-07-20T01:22:39.282Z,1008.89
2023-07-20T01:22:48.861Z,1008.87
2023-07-20T01:23:07.804Z,1008.93
2023-07-20T01:23:17.170Z,1008.91
2023-07-20T01:23:26.731Z,1008.92
2023-07-20T01:23:36.217Z,1008.86
2023-07-20T01:23:45.571Z,1008.91
2023-07-20T01:23:55.016Z,1008.97
2023-07-20T01:24:13.795Z,1008.82
2023-07-20T01:24:23.173Z,1008.79
2023-07-20T01:24:32.591Z,1008.94
2023-07-20T01:24:41.970Z,1008.86
2023-07-20T01:24:51.380Z,1008.92
2023-07-20T01:25:00.775Z,1008.75
2023-07-20T01:25:19.595Z,1008.89
2023-07-20T01:25:29.021Z,1008.84
2023-07-20T01:25:38.413Z,1008.83
2023-07-20T01:25:47.815Z,1008.86
2023-07-20T01:25:57.224Z,1008.80
2023-07-20T01:26:06.609Z,1008.85
2023-07-20T01:26:25.455Z,1008.86
2023-07-20T01:26:34.847Z,1008.86
2023-07-20T01:26:44.267Z,1008.85
2023-07-20T01:26:53.655Z,1008.86
2023-07-20T01:27:03.051Z,1008.84
2023-07-20T01:27:12.448Z,1008.85
2023-07-20T01:27:31.418Z,1008.80
2023-07-20T01:27:40.829Z,1008.85
2023-07-20T01:27:50.224Z,1008.82
2023-07-20T01:27:59.633Z,1008.82
2023-07-20T01:28:09.058Z,1008.81
2023-07-20T01:28:18.513Z,1008.82
2023-07-20T01:28:37.345Z,1008.82
2023-07-20T01:28:46.757Z,1008.79
2023-07-20T01:28:56.195Z,1008.84
2023-07-20T01:29:05.608Z,1008.82
2023-07-20T01:29:15.007Z,1008.84
2023-07-20T01:29:24.398Z,1008.86
2023-07-20T01:29:43.200Z,1008.72
2023-07-20T01:29:52.670Z,1008.80
2023-07-20T01:30:02.104Z,1008.82
2023-07-20T01:30:11.503Z,1008.84
2023-07-20T01:30:20.907Z,1008.84
2023-07-20T01:30:30.394Z,1008.81
2023-07-20T01:30:49.323Z,1008.86
2023-07-20T01:30:58.722Z,1008.80
2023-07-20T01:31:08.174Z,1008.84
2023-07-20T01:31:17.703Z,1008.83
2023-07-20T01:31:27.124Z,1008.78
2023-07-20T01:31:36.613Z,1008.79
2023-07-20T01:31:55.432Z,1008.86
2023-07-20T01:32:04.809Z,1008.78
2023-07-20T01:32:14.248Z,1008.82
2023-07-20T01:32:23.685Z,1008.75
2023-07-20T01:32:33.080Z,1008.80
2023-07-20T01:32:42.533Z,1008.83
2023-07-20T01:33:01.429Z,1008.85
2023-07-20T01:33:10.817Z,1008.83
2023-07-20T01:33:20.219Z,1008.82
2023-07-20T01:33:29.640Z,1008.82
2023-07-20T01:33:39.064Z,1008.76
2023-07-20T01:33:48.511Z,1008.80
2023-07-20T01:34:07.273Z,1008.79
2023-07-20T01:34:16.674Z,1008.80
2023-07-20T01:34:26.129Z,1008.77
2023-07-20T01:34:35.510Z,1008.78
2023-07-20T01:34:44.902Z,1008.81
2023-07-20T01:34:54.310Z,1008.81
2023-07-20T01:35:13.134Z,1008.81
2023-07-20T01:35:22.539Z,1008.77
2023-07-20T01:35:31.980Z,1008.74
2023-07-20T01:35:41.414Z,1008.79
2023-07-20T01:35:50.866Z,1008.80
2023-07-20T01:36:00.288Z,1008.79
2023-07-20T01:36:19.184Z,1008.81
2023-07-20T01:36:28.606Z,1008.76
2023-07-20T01:36:38.046Z,1008.82
2023-07-20T01:36:47.468Z,1008.78
2023-07-20T01:36:56.899Z,1008.79
2023-07-20T01:37:06.305Z,1008.79
2023-07-20T01:37:25.153Z,1008.78
2023-07-20T01:37:34.560Z,1008.80
2023-07-20T01:37:43.961Z,1008.81
2023-07-20T01:37:53.378Z,1008.84
2023-07-20T01:38:02.765Z,1008.76
2023-07-20T01:38:12.164Z,1008.81
2023-07-20T01:38:30.971Z,1008.77
2023-07-20T01:38:40.363Z,1008.79
2023-07-20T01:38:49.741Z,1008.82
2023-07-20T01:38:59.150Z,1008.80
2023-07-20T01:39:08.531Z,1008.81
2023-07-20T01:39:17.939Z,1008.82
2023-07-20T01:39:36.742Z,1008.80
2023-07-20T01:39:46.154Z,1008.85
2023-07-20T01:39:55.554Z,1008.83
2023-07-20T01:40:04.963Z,1008.73
2023-07-20T01:40:14.375Z,1008.87
2023-07-20T01:40:23.807Z,1008.79
2023-07-20T01:40:42.698Z,1008.80
2023-07-20T01:40:52.112Z,1008.79
2023-07-20T01:41:01.525Z,1008.80
2023-07-20T01:41:10.937Z,1008.81
2023-07-20T01:41:20.374Z,1008.80
2023-07-20T01:41:29.745Z,1008.76
2023-07-20T01:41:48.680Z,1008.76
2023-07-20T01:41:58.079Z,1008.85
2023-07-20T01:42:07.475Z,1008.77
2023-07-20T01:42:16.888Z,1008.82
2023-07-20T01:42:26.307Z,1008.83
2023-07-20T01:42:35.756Z,1008.81
2023-07-20T01:42:54.580Z,1008.72
2023-07-20T01:43:04.002Z,1008.76
2023-07-20T01:43:13.410Z,1008.77
2023-07-20T01:43:22.838Z,1008.76
2023-07-20T01:43:32.270Z,1008.80
2023-07-20T01:43:41.658Z,1008.78
2023-07-20T01:44:00.479Z,1008.80
2023-07-20T01:44:09.878Z,1008.86
2023-07-20T01:44:19.292Z,1008.82
2023-07-20T01:44:28.717Z,1008.79
2023-07-20T01:44:38.112Z,1008.82
2023-07-20T01:44:47.541Z,1008.75
2023-07-20T01:45:06.412Z,1008.78
2023-07-20T01:45:15.813Z,1008.76
2023-07-20T01:45:25.209Z,1008.76
2023-07-20T01:45:34.711Z,1008.79
2023-07-20T01:45:44.067Z,1008.78
2023-07-20T01:45:53.474Z,1008.81
2023-07-20T01:46:12.318Z,1008.81
2023-07-20T01:46:21.919Z,1008.78
2023-07-20T01:46:31.214Z,1008.80
2023-07-20T01:46:40.550Z,1008.76
2023-07-20T01:46:49.968Z,1008.81
2023-07-20T01:46:59.384Z,1008.83
2023-07-20T01:47:18.403Z,1008.80
2023-07-20T01:47:27.816Z,1008.82
2023-07-20T01:47:37.230Z,1008.80
2023-07-20T01:47:46.620Z,1008.81
2023-07-20T01:47:56.073Z,1008.80
2023-07-20T01:48:05.586Z,1008.83
2023-07-20T01:48:24.428Z,1008.83
2023-07-20T01:48:33.934Z,1008.75
2023-07-20T01:48:43.244Z,1008.80
2023-07-20T01:48:52.749Z,1008.75
2023-07-20T01:49:02.081Z,1008.77
2023-07-20T01:49:11.483Z,1008.81
2023-07-20T01:49:30.619Z,1008.83
2023-07-20T01:49:40.026Z,1008.81
2023-07-20T01:49:49.444Z,1008.79
2023-07-20T01:49:58.849Z,1008.87
2023-07-20T01:50:08.289Z,1008.89
2023-07-20T01:50:17.657Z,1008.82
2023-07-20T01:50:36.524Z,1008.82
2023-07-20T01:50:45.948Z,1008.82
2023-07-20T01:50:55.353Z,1008.82
2023-07-20T01:51:04.747Z,1008.88
2023-07-20T01:51:14.119Z,1008.93
2023-07-20T01:51:23.538Z,1008.84
2023-07-20T01:51:42.345Z,1008.92
2023-07-20T01:51:51.766Z,1008.85
2023-07-20T01:52:01.123Z,1008.85
2023-07-20T01:52:10.529Z,1008.84
2023-07-20T01:52:19.924Z,1008.86
2023-07-20T01:52:29.343Z,1008.87
2023-07-20T01:52:48.185Z,1008.87
2023-07-20T01:52:57.598Z,1008.89
2023-07-20T01:53:06.998Z,1008.84
2023-07-20T01:53:16.449Z,1008.89
2023-07-20T01:53:25.830Z,1008.82
2023-07-20T01:53:35.291Z,1008.82
2023-07-20T01:53:54.090Z,1008.87
2023-07-20T01:54:03.461Z,1008.90
2023-07-20T01:54:12.876Z,1008.96
2023-07-20T01:54:22.519Z,1008.87
2023-07-20T01:54:31.930Z,1008.90
2023-07-20T01:54:41.384Z,1008.86
2023-07-20T01:55:00.187Z,1008.90
2023-07-20T01:55:09.641Z,1008.89
2023-07-20T01:55:19.044Z,1008.87
2023-07-20T01:55:28.455Z,1008.90
2023-07-20T01:55:37.876Z,1008.88
2023-07-20T01:55:47.280Z,1008.87
2023-07-20T01:56:06.117Z,1008.86
2023-07-20T01:56:15.531Z,1008.92
2023-07-20T01:56:25.276Z,1008.99
2023-07-20T01:56:34.357Z,1008.89
2023-07-20T01:56:43.758Z,1008.94
2023-07-20T01:56:53.239Z,1008.88
2023-07-20T01:57:12.096Z,1008.97
2023-07-20T01:57:21.520Z,1008.91
2023-07-20T01:57:30.920Z,1008.90
2023-07-20T01:57:40.368Z,1008.90
2023-07-20T01:57:49.772Z,1008.94
2023-07-20T01:57:59.215Z,1008.88
2023-07-20T01:58:18.013Z,1008.91
2023-07-20T01:58:27.419Z,1008.86
2023-07-20T01:58:36.832Z,1008.89
2023-07-20T01:58:46.209Z,1008.92
2023-07-20T01:58:55.794Z,1008.91
2023-07-20T01:59:05.204Z,1008.89
2023-07-20T01:59:24.041Z,1008.88
2023-07-20T01:59:33.467Z,1008.84
2023-07-20T01:59:43.128Z,1008.93
2023-07-20T01:59:52.540Z,1008.92
2023-07-20T02:00:01.941Z,1008.86
2023-07-20T02:00:11.388Z,1008.85
2023-07-20T02:00:30.274Z,1008.92
2023-07-20T02:00:39.681Z,1008.88
2023-07-20T02:00:49.077Z,1008.86
2023-07-20T02:00:58.544Z,1008.83
2023-07-20T02:01:07.929Z,1008.92
2023-07-20T02:01:17.325Z,1008.87
2023-07-20T02:01:36.261Z,1008.86
2023-07-20T02:01:45.875Z,1008.85
2023-07-20T02:01:55.223Z,1008.89
2023-07-20T02:02:04.632Z,1008.83
2023-07-20T02:02:14.050Z,1008.89
2023-07-20T02:02:23.562Z,1008.89
2023-07-20T02:02:42.409Z,1008.90
2023-07-20T02:03:19.226Z,1008.84
2023-07-20T02:03:28.635Z,1008.87
2023-07-20T02:03:38.088Z,1008.93
2023-07-20T02:03:47.520Z,1008.87
2023-07-20T02:03:56.937Z,1008.84
2023-07-20T02:04:06.402Z,1008.90
2023-07-20T02:04:25.243Z,1008.78
2023-07-20T02:04:34.650Z,1008.89
2023-07-20T02:04:44.053Z,1008.78
2023-07-20T02:04:53.489Z,1008.85
2023-07-20T02:05:02.885Z,1008.80
2023-07-20T02:05:12.293Z,1008.80
2023-07-20T02:05:31.150Z,1008.85
2023-07-20T02:05:40.583Z,1008.85
2023-07-20T02:05:49.997Z,1008.77
2023-07-20T02:05:59.443Z,1008.82
2023-07-20T02:06:08.882Z,1008.82
2023-07-20T02:06:18.334Z,1008.84
2023-07-20T02:06:37.137Z,1008.76
2023-07-20T02:06:46.582Z,1008.81
2023-07-20T02:06:55.972Z,1008.83
2023-07-20T02:07:05.375Z,1008.80
2023-07-20T02:07:14.823Z,1008.81
2023-07-20T02:07:24.200Z,1008.83
2023-07-20T02:07:43.009Z,1008.83
2023-07-20T02:07:52.407Z,1008.86
2023-07-20T02:08:01.835Z,1008.80
2023-07-20T02:08:11.287Z,1008.83
2023-07-20T02:08:20.709Z,1008.83
2023-07-20T02:08:30.138Z,1008.83
2023-07-20T02:08:49.044Z,1008.79
2023-07-20T02:08:58.450Z,1008.82
2023-07-20T02:09:07.853Z,1008.84
2023-07-20T02:09:17.287Z,1008.84
2023-07-20T02:09:26.723Z,1008.83
2023-07-20T02:09:36.135Z,1008.78
2023-07-20T02:09:55.068Z,1008.84
2023-07-20T02:10:04.501Z,1008.80
2023-07-20T02:10:13.903Z,1008.86
2023-07-20T02:10:23.342Z,1008.82
2023-07-20T02:10:32.755Z,1008.79
2023-07-20T02:10:42.213Z,1008.87
2023-07-20T02:11:01.018Z,1008.81
2023-07-20T02:11:10.441Z,1008.85
2023-07-20T02:11:19.849Z,1008.84
2023-07-20T02:11:29.261Z,1008.79
2023-07-20T02:11:38.620Z,1008.78
2023-07-20T02:11:48.031Z,1008.82
2023-07-20T02:12:06.844Z,1008.80
2023-07-20T02:12:16.284Z,1008.81
2023-07-20T02:12:25.674Z,1008.79
2023-07-20T02:12:35.124Z,1008.78
2023-07-20T02:12:44.576Z,1008.85
2023-07-20T02:12:53.991Z,1008.79
2023-07-20T02:13:12.861Z,1008.85
2023-07-20T02:13:22.287Z,1008.86
2023-07-20T02:13:31.787Z,1008.84
2023-07-20T02:13:41.212Z,1008.90
2023-07-20T02:13:50.605Z,1008.78
2023-07-20T02:14:00.015Z,1008.92
2023-07-20T02:14:18.813Z,1008.84
2023-07-20T02:14:28.233Z,1008.92
2023-07-20T02:14:37.642Z,1008.86
2023-07-20T02:14:47.087Z,1008.85
2023-07-20T02:14:56.525Z,1008.89
2023-07-20T02:15:05.938Z,1008.84
2023-07-20T02:15:24.760Z,1008.88
2023-07-20T02:15:34.158Z,1008.84
2023-07-20T02:15:43.754Z,1008.85
2023-07-20T02:15:53.101Z,1008.91
2023-07-20T02:16:02.678Z,1008.94
2023-07-20T02:16:12.194Z,1008.84
2023-07-20T02:16:30.990Z,1008.87
2023-07-20T02:16:40.629Z,1008.88
2023-07-20T02:16:50.017Z,1008.80
2023-07-20T02:16:59.523Z,1008.84
2023-07-20T02:17:09.003Z,1008.88
2023-07-20T02:17:18.373Z,1008.87
2023-07-20T02:17:37.225Z,1008.87
2023-07-20T02:17:46.655Z,1008.84
2023-07-20T02:17:56.092Z,1008.86
2023-07-20T02:18:05.423Z,1008.90
2023-07-20T02:18:14.835Z,1008.85
2023-07-20T02:18:24.271Z,1008.88
2023-07-20T02:18:43.108Z,1008.87
2023-07-20T02:18:52.537Z,1008.82
2023-07-20T02:19:01.948Z,1008.88
2023-07-20T02:19:11.356Z,1008.83
2023-07-20T02:19:20.758Z,1008.89
2023-07-20T02:19:30.177Z,1008.86
2023-07-20T02:19:49.001Z,1008.91
2023-07-20T02:19:58.395Z,1008.90
2023-07-20T02:20:07.910Z,1008.89
2023-07-20T02:20:17.357Z,1008.86
2023-07-20T02:20:26.793Z,1008.90
2023-07-20T02:20:36.172Z,1008.94
2023-07-20T02:20:55.019Z,1008.90
2023-07-20T02:21:04.436Z,1008.92
2023-07-20T02:21:13.872Z,1008.94
2023-07-20T02:21:23.271Z,1008.85
2023-07-20T02:21:32.700Z,1008.87
2023-07-20T02:21:42.188Z,1008.91
2023-07-20T02:22:01.020Z,1008.82
2023-07-20T02:22:10.432Z,1008.86
2023-07-20T02:22:19.829Z,1008.82
2023-07-20T02:22:29.240Z,1008.90